Time;durP1;ratioP1;P1;durP2;ratioP2;P2;SDS_P1;SDS_P2;PMS_P1;PMS_P2;Temp;Humidity;BMP_temperature;BMP_pressure;BME280_temperature;BME280_humidity;BME280_pressure;Samples;Min_cycle;Max_cycle;Signal;HPM_P1;HPM_P2
2022/02/06 00:01:54;;;;;;;5.20;1.67;;;3.20;99.90;;;;;;1828826;77;21138;-74
2022/02/06 00:04:23;;;;;;;3.92;2.00;;;3.20;99.90;;;;;;1828912;77;21448;-73
2022/02/06 00:06:52;;;;;;;12.23;1.67;;;3.30;99.90;;;;;;1828676;78;21145;-73
2022/02/06 00:09:20;;;;;;;6.03;1.70;;;3.20;99.90;;;;;;1828667;77;21472;-73
2022/02/06 00:11:47;;;;;;;6.33;1.62;;;3.30;99.90;;;;;;1828839;77;21028;-74
2022/02/06 00:14:14;;;;;;;11.73;2.05;;;3.30;99.90;;;;;;1828853;77;21129;-73
2022/02/06 00:16:42;;;;;;;11.97;2.10;;;3.30;99.90;;;;;;1829023;78;21036;-74
2022/02/06 00:19:09;;;;;;;4.55;1.52;;;3.30;99.90;;;;;;1828964;78;21471;-74
2022/02/06 00:21:36;;;;;;;5.12;1.60;;;3.30;99.90;;;;;;1828870;77;21035;-73
2022/02/06 00:24:06;;;;;;;5.03;2.00;;;3.30;99.90;;;;;;1829010;77;21020;-74
2022/02/06 00:31:47;;;;;;;5.67;1.70;;;3.30;99.90;;;;;;1796090;78;21083;-74
2022/02/06 00:34:30;;;;;;;11.10;2.27;;;3.30;99.90;;;;;;1792527;78;21060;-74
2022/02/06 00:38:06;;;;;;;2.92;1.50;;;3.30;99.90;;;;;;1823577;77;21425;-74
2022/02/06 00:39:16;;;;;;;8.80;2.00;;;3.30;99.90;;;;;;1795266;78;21071;-74
2022/02/06 00:41:43;;;;;;;5.83;1.62;;;3.30;99.90;;;;;;1828791;77;21136;-74
2022/02/06 00:44:11;;;;;;;5.92;1.62;;;3.40;99.90;;;;;;1828728;77;21129;-74
2022/02/06 00:46:39;;;;;;;5.40;1.67;;;3.40;99.90;;;;;;1828663;78;21012;-73
2022/02/06 00:49:14;;;;;;;5.05;1.40;;;3.40;99.90;;;;;;1828721;78;21063;-74
2022/02/06 00:52:26;;;;;;;4.20;1.37;;;3.40;99.90;;;;;;1826692;78;21429;-74
2022/02/06 00:54:09;;;;;;;6.03;1.45;;;3.40;99.90;;;;;;1809759;78;21129;-73
2022/02/06 00:56:39;;;;;;;7.37;1.90;;;3.50;99.90;;;;;;1828317;77;21090;-74
2022/02/06 00:59:05;;;;;;;3.75;1.75;;;3.50;99.90;;;;;;1828227;77;21476;-74
2022/02/06 01:01:32;;;;;;;3.80;1.40;;;3.50;99.90;;;;;;1828327;78;21470;-75
2022/02/06 01:04:00;;;;;;;2.80;1.40;;;3.60;99.90;;;;;;1828533;78;21012;-74
2022/02/06 01:06:27;;;;;;;4.85;1.80;;;3.60;99.90;;;;;;1828443;78;21009;-74
2022/02/06 01:08:54;;;;;;;4.65;1.87;;;3.60;99.90;;;;;;1828345;77;21113;-74
2022/02/06 01:11:22;;;;;;;6.40;1.80;;;3.60;99.90;;;;;;1828438;77;21044;-74
2022/02/06 01:14:13;;;;;;;5.30;1.95;;;3.70;99.90;;;;;;1828317;77;21456;-73
2022/02/06 01:16:38;;;;;;;4.90;1.50;;;3.70;99.90;;;;;;1826182;78;21067;-75
2022/02/06 01:19:07;;;;;;;5.28;1.45;;;3.70;99.90;;;;;;1827468;78;21067;-75
2022/02/06 01:24:08;;;;;;;7.53;1.67;;;3.70;99.90;;;;;;1828275;77;21064;-74
2022/02/06 01:26:41;;;;;;;6.10;1.65;;;3.70;99.90;;;;;;1825996;78;21055;-74
2022/02/06 01:29:17;;;;;;;4.05;1.10;;;3.70;99.90;;;;;;1827197;78;21475;-74
2022/02/06 01:31:53;;;;;;;4.87;1.47;;;3.70;99.90;;;;;;1825414;78;21467;-75
2022/02/06 01:34:17;;;;;;;11.22;1.40;;;3.70;99.90;;;;;;1826560;78;21063;-73
2022/02/06 01:37:00;;;;;;;3.30;1.45;;;3.70;99.90;;;;;;1827996;78;21036;-74
2022/02/06 01:42:02;;;;;;;6.85;1.52;;;3.70;99.90;;;;;;1828366;78;21174;-74
2022/02/06 01:44:53;;;;;;;6.30;1.15;;;3.70;99.90;;;;;;1828343;77;21032;-75
2022/02/06 02:00:59;;;;;;;3.98;1.10;;;3.70;99.90;;;;;;1828375;77;21110;-75
2022/02/06 02:03:28;;;;;;;6.90;1.37;;;3.70;99.90;;;;;;1824088;78;21479;-73
2022/02/06 02:14:14;;;;;;;6.07;1.40;;;3.70;99.90;;;;;;1822761;78;21142;-72
2022/02/06 02:19:35;;;;;;;6.72;1.75;;;3.70;99.90;;;;;;1820154;79;21142;-74
2022/02/06 02:22:09;;;;;;;6.00;1.30;;;3.70;99.90;;;;;;1823269;78;21052;-73
2022/02/06 02:27:21;;;;;;;4.47;1.50;;;3.70;99.90;;;;;;1828377;78;21075;-74
2022/02/06 02:32:52;;;;;;;4.22;1.30;;;3.60;99.90;;;;;;1828376;78;21067;-74
2022/02/06 02:48:17;;;;;;;6.83;1.37;;;3.70;99.90;;;;;;1828399;77;21145;-74
2022/02/06 02:51:06;;;;;;;3.50;1.47;;;3.70;99.90;;;;;;1828007;78;21183;-74
2022/02/06 02:53:38;;;;;;;7.25;1.37;;;3.70;99.90;;;;;;1856621;76;21168;-73
2022/02/06 02:56:13;;;;;;;4.03;1.40;;;3.80;99.90;;;;;;1855369;75;21132;-75
2022/02/06 02:58:58;;;;;;;4.80;1.20;;;3.80;99.90;;;;;;1854077;77;21081;-74
2022/02/06 03:01:15;;;;;;;2.50;0.95;;;3.90;99.90;;;;;;1849998;77;21155;-75
2022/02/06 03:03:39;;;;;;;3.08;1.22;;;3.90;99.90;;;;;;1855099;77;21081;-74
2022/02/06 03:06:06;;;;;;;4.70;1.47;;;3.90;99.90;;;;;;1856150;77;21124;-75
2022/02/06 03:08:37;;;;;;;4.95;1.30;;;4.00;99.90;;;;;;1856388;77;21237;-74
2022/02/06 03:11:08;;;;;;;3.77;1.35;;;4.10;99.90;;;;;;1856407;77;21552;-73
2022/02/06 03:14:26;;;;;;;6.07;1.53;;;4.00;99.90;;;;;;1856410;77;21427;-75
2022/02/06 03:19:24;;;;;;;6.55;1.42;;;4.00;99.90;;;;;;1856403;77;21189;-74
2022/02/06 03:21:27;;;;;;;6.40;1.35;;;4.10;99.90;;;;;;1840066;77;21472;-75
2022/02/06 03:23:49;;;;;;;6.92;1.40;;;4.00;99.90;;;;;;1852448;77;21219;-74
2022/02/06 03:26:12;;;;;;;2.20;0.90;;;4.10;99.90;;;;;;1855550;75;21132;-74
2022/02/06 03:28:39;;;;;;;13.58;1.27;;;4.10;99.90;;;;;;1856302;77;21111;-73
2022/02/06 03:31:07;;;;;;;4.00;0.68;;;4.10;99.90;;;;;;1831621;77;21219;-74
2022/02/06 03:33:34;;;;;;;6.08;1.37;;;4.10;99.90;;;;;;1865504;76;21046;-74
2022/02/06 03:36:03;;;;;;;1.87;0.88;;;4.10;99.90;;;;;;1856343;77;21037;-75
2022/02/06 03:38:33;;;;;;;4.28;1.12;;;4.10;99.90;;;;;;1846893;77;21136;-75
2022/02/06 03:41:04;;;;;;;3.80;1.30;;;4.10;99.90;;;;;;1856267;77;21065;-73
2022/02/06 03:43:52;;;;;;;4.47;1.40;;;4.10;99.90;;;;;;1855734;77;21132;-74
2022/02/06 03:46:15;;;;;;;10.28;1.20;;;4.10;99.90;;;;;;1864576;76;21077;-74
2022/02/06 03:48:47;;;;;;;6.05;1.17;;;4.10;99.90;;;;;;1855829;77;21415;-74
2022/02/06 03:51:24;;;;;;;3.98;1.05;;;4.00;99.90;;;;;;1855856;77;21073;-73
2022/02/06 03:53:41;;;;;;;2.17;0.93;;;4.10;99.90;;;;;;1852650;77;21184;-73
2022/02/06 03:56:09;;;;;;;2.55;1.20;;;4.10;99.90;;;;;;1856276;77;21139;-73
2022/02/06 03:58:36;;;;;;;1.90;1.07;;;4.10;99.90;;;;;;1856269;77;21088;-73
2022/02/06 04:01:03;;;;;;;5.75;1.37;;;4.00;99.90;;;;;;1856543;77;21051;-73
2022/02/06 04:03:31;;;;;;;4.12;1.20;;;4.00;99.90;;;;;;1856478;77;21112;-73
2022/02/06 04:05:58;;;;;;;4.55;1.20;;;4.10;99.90;;;;;;1856419;77;21018;-75
2022/02/06 04:08:28;;;;;;;6.00;1.30;;;4.00;99.90;;;;;;1856340;77;21156;-75
2022/02/06 04:10:56;;;;;;;4.35;1.05;;;4.00;99.90;;;;;;1856238;77;21514;-73
2022/02/06 04:13:25;;;;;;;4.45;1.15;;;4.10;99.90;;;;;;1856293;77;21081;-74
2022/02/06 04:16:02;;;;;;;8.78;2.22;;;4.10;99.90;;;;;;1856420;75;21090;-74
2022/02/06 04:21:03;;;;;;;4.55;1.40;;;4.20;99.90;;;;;;1791617;80;21568;-73
2022/02/06 04:23:31;;;;;;;4.47;1.05;;;4.20;99.90;;;;;;1826038;78;21184;-73
2022/02/06 04:25:58;;;;;;;4.97;1.35;;;4.40;99.90;;;;;;1830233;77;21130;-74
2022/02/06 04:28:25;;;;;;;4.75;1.15;;;4.40;99.90;;;;;;1800730;80;21099;-73
2022/02/06 04:30:52;;;;;;;3.52;1.00;;;4.40;99.90;;;;;;1794951;78;21176;-73
2022/02/06 04:33:20;;;;;;;6.78;0.90;;;4.50;99.90;;;;;;1857614;76;21451;-73
2022/02/06 04:35:50;;;;;;;7.15;1.40;;;4.40;99.90;;;;;;1886591;75;21050;-76
2022/02/06 04:41:15;;;;;;;5.87;1.27;;;4.50;99.90;;;;;;1885665;76;21071;-73
2022/02/06 04:54:43;;;;;;;1.85;0.90;;;4.50;99.90;;;;;;1868937;76;21089;-74
2022/02/06 05:16:22;;;;;;;6.58;1.47;;;4.50;99.90;;;;;;1823432;78;21108;-75
2022/02/06 05:19:24;;;;;;;2.50;1.10;;;4.40;99.90;;;;;;1816705;79;21545;-74
2022/02/06 05:27:18;;;;;;;1.55;0.72;;;4.40;99.90;;;;;;1818586;77;21137;-74
2022/02/06 05:29:50;;;;;;;6.42;1.15;;;4.40;99.90;;;;;;1818208;79;21092;-75
2022/02/06 05:32:22;;;;;;;10.60;2.00;;;4.40;99.90;;;;;;1821143;77;21154;-75
2022/02/06 05:34:43;;;;;;;9.08;1.32;;;4.40;99.90;;;;;;1822244;79;21188;-75
2022/02/06 05:37:11;;;;;;;2.50;1.00;;;4.40;99.90;;;;;;1819874;79;21044;-75
2022/02/06 05:39:38;;;;;;;1.77;0.80;;;4.30;99.90;;;;;;1821550;78;21052;-75
2022/02/06 05:42:06;;;;;;;2.20;1.02;;;4.30;99.90;;;;;;1824158;78;21090;-74
2022/02/06 05:44:35;;;;;;;9.40;1.15;;;4.40;99.90;;;;;;1824149;79;21424;-74
2022/02/06 05:47:03;;;;;;;3.60;1.05;;;4.40;99.90;;;;;;1824170;78;21036;-75
2022/02/06 05:49:31;;;;;;;6.60;1.07;;;4.40;99.90;;;;;;1823036;78;21067;-75
2022/02/06 05:51:58;;;;;;;5.42;2.00;;;4.40;99.90;;;;;;1823631;78;21467;-75
2022/02/06 05:54:25;;;;;;;7.33;1.90;;;4.40;99.90;;;;;;1814623;78;21072;-75
2022/02/06 05:56:53;;;;;;;5.97;2.33;;;4.40;99.90;;;;;;1821770;78;21064;-75
2022/02/06 05:59:20;;;;;;;9.85;2.50;;;4.30;99.90;;;;;;1819542;79;21137;-75
2022/02/06 06:01:48;;;;;;;4.67;1.50;;;4.40;99.90;;;;;;1819883;78;21171;-75
2022/02/06 06:04:15;;;;;;;4.10;1.05;;;4.50;99.90;;;;;;1819186;78;21052;-74
2022/02/06 06:06:42;;;;;;;4.22;1.25;;;4.60;99.90;;;;;;1824139;78;21071;-75
2022/02/06 06:09:10;;;;;;;5.45;1.17;;;4.60;99.90;;;;;;1821878;78;21079;-74
2022/02/06 06:11:37;;;;;;;5.03;1.15;;;4.70;99.90;;;;;;1816042;78;21067;-75
2022/02/06 06:14:04;;;;;;;6.78;1.40;;;4.80;99.90;;;;;;1814641;78;21519;-74
2022/02/06 06:16:35;;;;;;;6.12;1.12;;;4.80;99.90;;;;;;1811891;79;21048;-74
2022/02/06 06:19:02;;;;;;;4.58;1.15;;;5.00;99.90;;;;;;1810872;79;21077;-74
2022/02/06 06:21:35;;;;;;;4.97;1.12;;;5.10;99.90;;;;;;1822103;79;21071;-75
2022/02/06 06:23:59;;;;;;;2.83;1.02;;;5.10;99.90;;;;;;1815566;78;21049;-75
2022/02/06 06:26:30;;;;;;;4.70;1.10;;;5.10;99.90;;;;;;1822613;78;21141;-75
2022/02/06 06:28:56;;;;;;;5.12;1.27;;;5.30;99.90;;;;;;1816241;78;21165;-75
2022/02/06 06:31:26;;;;;;;4.12;1.07;;;5.30;99.90;;;;;;1822420;79;21117;-76
2022/02/06 06:33:53;;;;;;;6.10;1.35;;;5.30;99.90;;;;;;1799459;78;21083;-76
2022/02/06 06:36:23;;;;;;;4.72;1.40;;;5.30;99.90;;;;;;1815867;78;21218;-75
2022/02/06 06:38:51;;;;;;;4.95;1.37;;;5.30;99.90;;;;;;1816570;78;21072;-74
2022/02/06 06:41:19;;;;;;;4.75;1.40;;;5.30;99.90;;;;;;1809477;78;21488;-76
2022/02/06 06:43:46;;;;;;;8.33;1.40;;;5.40;99.90;;;;;;1816248;78;21286;-76
2022/02/06 06:46:13;;;;;;;5.62;1.40;;;5.40;99.90;;;;;;1811089;78;21072;-77
2022/02/06 06:48:41;;;;;;;2.70;0.90;;;5.50;99.90;;;;;;1813321;78;21170;-75
2022/02/06 06:51:11;;;;;;;5.33;1.27;;;5.50;99.90;;;;;;1817011;78;21437;-76
2022/02/06 06:53:42;;;;;;;5.00;0.90;;;5.40;99.90;;;;;;1812890;78;21072;-74
2022/02/06 06:56:17;;;;;;;6.42;1.15;;;5.50;99.90;;;;;;1807655;79;21498;-76
2022/02/06 06:58:43;;;;;;;6.80;1.52;;;5.50;99.90;;;;;;1815606;77;21064;-74
2022/02/06 07:01:31;;;;;;;5.03;0.90;;;5.50;99.90;;;;;;1808075;78;21155;-74
2022/02/06 07:03:39;;;;;;;7.87;1.27;;;5.40;99.90;;;;;;1812819;78;21500;-75
2022/02/06 07:06:06;;;;;;;5.78;1.40;;;5.50;99.90;;;;;;1814057;78;21162;-74
2022/02/06 07:08:35;;;;;;;3.52;1.20;;;5.50;99.90;;;;;;1815564;78;21071;-76
2022/02/06 07:11:02;;;;;;;5.25;0.98;;;5.50;99.90;;;;;;1819784;78;21491;-74
2022/02/06 07:13:29;;;;;;;5.78;1.10;;;5.60;99.90;;;;;;1816260;78;21146;-74
2022/02/06 07:15:57;;;;;;;5.65;1.00;;;5.70;99.90;;;;;;1816176;78;21155;-72
2022/02/06 07:18:24;;;;;;;3.77;1.37;;;5.70;99.90;;;;;;1832590;76;21134;-74
2022/02/06 07:20:52;;;;;;;3.47;1.15;;;5.70;99.90;;;;;;1804290;78;21095;-75
2022/02/06 07:23:19;;;;;;;6.97;1.25;;;5.80;99.90;;;;;;1779958;79;21105;-77
2022/02/06 07:25:50;;;;;;;2.72;0.95;;;5.80;99.90;;;;;;1873320;76;21598;-76
2022/02/06 07:28:29;;;;;;;4.05;1.00;;;5.80;99.90;;;;;;1840125;76;21426;-76
2022/02/06 07:30:55;;;;;;;8.60;1.22;;;5.90;99.90;;;;;;1822821;77;21154;-77
2022/02/06 07:33:22;;;;;;;2.20;1.05;;;5.90;99.90;;;;;;1787228;79;21581;-76
2022/02/06 07:35:50;;;;;;;4.12;1.20;;;6.00;99.90;;;;;;1795444;78;21148;-76
2022/02/06 07:38:18;;;;;;;7.20;1.25;;;6.00;99.90;;;;;;1820091;78;21070;-76
2022/02/06 07:40:46;;;;;;;4.80;1.30;;;6.00;99.90;;;;;;1823462;78;21098;-77
2022/02/06 07:43:13;;;;;;;6.08;1.10;;;6.10;99.90;;;;;;1824740;78;21082;-76
2022/02/06 07:45:40;;;;;;;6.87;1.30;;;6.10;99.90;;;;;;1827380;77;21167;-76
2022/02/06 07:48:09;;;;;;;2.92;1.05;;;6.20;99.90;;;;;;1824176;78;21502;-77
2022/02/06 07:50:37;;;;;;;4.25;1.10;;;6.20;99.90;;;;;;1822702;78;21198;-76
2022/02/06 07:53:04;;;;;;;3.40;0.98;;;6.20;99.90;;;;;;1821433;78;21085;-75
2022/02/06 07:55:31;;;;;;;4.97;1.47;;;6.20;99.90;;;;;;1824706;78;21164;-75
2022/02/06 07:57:59;;;;;;;9.98;1.55;;;6.20;99.90;;;;;;1824688;78;21063;-78
2022/02/06 08:00:26;;;;;;;6.85;1.02;;;6.20;99.90;;;;;;1823773;78;21283;-78
2022/02/06 08:02:53;;;;;;;5.62;1.30;;;6.30;99.90;;;;;;1822692;78;21168;-75
2022/02/06 08:05:21;;;;;;;3.87;1.50;;;6.30;99.90;;;;;;1825430;78;21097;-75
2022/02/06 08:07:50;;;;;;;4.80;1.00;;;6.30;99.90;;;;;;1825875;78;21238;-75
2022/02/06 08:10:20;;;;;;;4.87;1.17;;;6.40;99.90;;;;;;1826571;77;21160;-76
2022/02/06 08:12:56;;;;;;;7.87;1.17;;;6.40;99.90;;;;;;1820378;77;21103;-74
2022/02/06 08:15:23;;;;;;;4.00;1.47;;;6.50;99.90;;;;;;1827271;78;21482;-77
2022/02/06 08:17:51;;;;;;;4.25;1.40;;;6.50;99.90;;;;;;1860726;75;21148;-75
2022/02/06 08:20:19;;;;;;;3.65;0.90;;;6.50;99.90;;;;;;1819039;78;21512;-75
2022/02/06 08:22:48;;;;;;;4.62;1.35;;;6.60;99.90;;;;;;1803934;78;21620;-76
2022/02/06 08:25:15;;;;;;;11.43;1.57;;;6.60;99.90;;;;;;1794038;79;21179;-76
2022/02/06 08:27:43;;;;;;;2.75;1.00;;;6.60;99.90;;;;;;1862489;76;21152;-77
2022/02/06 08:30:11;;;;;;;7.05;1.15;;;6.60;99.90;;;;;;1869804;76;21156;-76
2022/02/06 08:32:38;;;;;;;7.37;1.40;;;6.70;99.90;;;;;;1875413;76;21062;-75
2022/02/06 08:35:07;;;;;;;2.75;1.00;;;6.70;99.90;;;;;;1889797;76;21113;-75
2022/02/06 08:37:35;;;;;;;10.85;1.40;;;6.70;99.90;;;;;;1881127;75;21078;-75
2022/02/06 08:40:12;;;;;;;5.33;1.17;;;6.70;99.90;;;;;;1880811;76;21473;-75
2022/02/06 08:42:33;;;;;;;5.40;1.27;;;6.80;99.90;;;;;;1820235;77;21129;-75
2022/02/06 08:45:01;;;;;;;3.02;1.10;;;6.90;99.90;;;;;;1789505;79;21075;-76
2022/02/06 08:47:28;;;;;;;9.93;1.30;;;7.00;99.90;;;;;;1858125;76;21493;-76
2022/02/06 08:49:56;;;;;;;4.65;1.37;;;7.00;99.90;;;;;;1856964;76;21147;-76
2022/02/06 08:52:23;;;;;;;4.90;1.00;;;7.10;99.90;;;;;;1876947;76;21089;-75
2022/02/06 08:54:51;;;;;;;6.08;1.37;;;7.20;99.90;;;;;;1882919;76;21073;-76
2022/02/06 08:57:21;;;;;;;2.22;1.45;;;7.30;99.90;;;;;;1856410;77;21046;-74
2022/02/06 08:59:47;;;;;;;2.90;0.90;;;7.50;99.90;;;;;;1878832;75;21205;-77
2022/02/06 09:02:15;;;;;;;3.65;1.40;;;7.50;99.90;;;;;;1866721;75;21465;-75
2022/02/06 09:04:44;;;;;;;5.08;1.40;;;7.40;99.90;;;;;;1869264;76;21147;-76
2022/02/06 09:07:11;;;;;;;5.83;1.82;;;7.30;99.90;;;;;;1862466;76;21054;-78
2022/02/06 09:09:43;;;;;;;8.15;1.25;;;7.30;99.90;;;;;;1871463;76;21070;-74
2022/02/06 09:12:09;;;;;;;3.30;1.20;;;7.30;99.90;;;;;;1886808;76;21525;-74
2022/02/06 09:14:36;;;;;;;5.10;1.10;;;7.30;99.90;;;;;;1871731;76;21505;-73
2022/02/06 09:17:04;;;;;;;5.30;1.00;;;7.40;99.90;;;;;;1870442;76;21070;-74
2022/02/06 09:19:34;;;;;;;3.05;1.05;;;7.40;99.90;;;;;;1859003;76;21065;-74
2022/02/06 09:22:00;;;;;;;5.55;1.67;;;7.40;99.90;;;;;;1872047;76;21591;-77
2022/02/06 09:24:27;;;;;;;3.35;1.10;;;7.40;99.90;;;;;;1862321;76;21203;-76
2022/02/06 09:26:56;;;;;;;3.45;1.10;;;7.40;99.90;;;;;;1866470;76;21077;-78
2022/02/06 09:29:24;;;;;;;5.97;1.30;;;7.30;99.90;;;;;;1858484;76;21065;-77
2022/02/06 09:31:52;;;;;;;2.77;0.90;;;7.30;99.90;;;;;;1866984;76;21066;-78
2022/02/06 09:36:47;;;;;;;4.83;1.20;;;7.30;99.90;;;;;;1888815;75;21038;-74
2022/02/06 09:39:14;;;;;;;3.90;1.07;;;7.30;99.90;;;;;;1867298;76;21081;-74
2022/02/06 09:41:44;;;;;;;7.55;1.25;;;7.30;99.90;;;;;;1863833;76;21066;-73
2022/02/06 09:44:12;;;;;;;3.67;0.93;;;7.40;99.90;;;;;;1863303;76;21146;-74
2022/02/06 09:46:41;;;;;;;4.33;1.00;;;7.40;99.90;;;;;;1871918;75;21054;-74
2022/02/06 09:49:08;;;;;;;5.47;1.20;;;7.40;99.90;;;;;;1866273;76;21521;-74
2022/02/06 09:51:36;;;;;;;5.33;1.20;;;7.40;99.90;;;;;;1862472;76;21089;-74
2022/02/06 09:54:03;;;;;;;3.62;1.12;;;7.60;99.90;;;;;;1876149;76;21058;-74
2022/02/06 09:56:33;;;;;;;3.20;1.20;;;7.60;99.90;;;;;;1886056;76;21089;-75
2022/02/06 09:59:16;;;;;;;6.08;1.10;;;7.50;99.90;;;;;;1870010;76;21073;-75
2022/02/06 10:01:31;;;;;;;4.60;1.20;;;7.60;99.90;;;;;;1852783;77;21151;-75
2022/02/06 10:04:04;;;;;;;7.20;1.00;;;7.60;99.90;;;;;;1863296;76;21050;-75
2022/02/06 10:06:40;;;;;;;5.33;1.47;;;7.70;99.90;;;;;;1878132;76;21163;-73
2022/02/06 10:09:07;;;;;;;6.47;1.22;;;7.80;99.90;;;;;;1883019;76;21112;-75
2022/02/06 10:11:39;;;;;;;3.85;1.35;;;7.80;99.90;;;;;;1860785;76;21159;-75
2022/02/06 10:14:05;;;;;;;6.47;1.32;;;7.80;99.90;;;;;;1869742;75;21560;-75
2022/02/06 10:16:32;;;;;;;6.72;1.42;;;7.80;99.90;;;;;;1871488;76;21160;-75
2022/02/06 10:19:00;;;;;;;6.03;1.45;;;7.90;99.90;;;;;;1886079;76;21127;-76
2022/02/06 10:21:32;;;;;;;4.80;1.27;;;8.00;99.90;;;;;;1827699;77;21143;-75
2022/02/06 10:24:15;;;;;;;4.03;1.67;;;8.00;99.90;;;;;;1860043;77;21069;-76
2022/02/06 10:26:52;;;;;;;4.12;1.25;;;8.00;99.90;;;;;;1855571;76;21159;-76
2022/02/06 10:31:40;;;;;;;6.08;1.20;;;7.90;99.90;;;;;;1856357;77;21065;-77
2022/02/06 10:34:19;;;;;;;3.58;0.70;;;8.00;99.90;;;;;;1856503;77;21620;-75
2022/02/06 10:36:46;;;;;;;5.10;1.92;;;8.00;99.90;;;;;;1821446;78;21050;-75
2022/02/06 10:39:15;;;;;;;5.03;1.27;;;8.00;99.90;;;;;;1822423;78;21156;-75
2022/02/06 10:41:45;;;;;;;4.30;0.80;;;8.00;99.90;;;;;;1763679;79;21176;-76
2022/02/06 10:44:14;;;;;;;5.27;1.07;;;8.10;99.90;;;;;;1868977;76;21081;-75
2022/02/06 10:46:54;;;;;;;3.10;1.07;;;8.00;99.90;;;;;;1873878;76;22207;-75
2022/02/06 10:49:21;;;;;;;3.95;0.95;;;8.00;99.90;;;;;;1887645;76;21128;-75
2022/02/06 10:51:52;;;;;;;2.52;0.90;;;8.00;99.90;;;;;;1875856;76;21080;-74
2022/02/06 10:54:32;;;;;;;4.45;1.17;;;8.00;99.90;;;;;;1841823;76;21106;-70
2022/02/06 10:57:02;;;;;;;5.08;1.20;;;8.10;99.90;;;;;;1858525;77;21049;-70
2022/02/06 10:59:31;;;;;;;2.15;0.72;;;8.20;99.90;;;;;;1858314;77;21087;-72
2022/02/06 11:01:59;;;;;;;4.85;1.17;;;8.10;99.90;;;;;;1820516;76;21080;-72
2022/02/06 11:04:32;;;;;;;4.65;0.98;;;8.20;99.90;;;;;;1791706;79;21089;-74
2022/02/06 11:07:18;;;;;;;9.80;1.10;;;8.10;99.90;;;;;;1806845;79;21090;-74
2022/02/06 11:09:43;;;;;;;1.12;0.62;;;8.20;99.90;;;;;;1852683;76;21094;-74
2022/02/06 11:12:15;;;;;;;1.37;0.82;;;8.20;99.90;;;;;;1853354;77;21158;-73
2022/02/06 11:14:50;;;;;;;1.90;0.62;;;8.20;99.90;;;;;;1853150;77;21014;-72
2022/02/06 11:17:23;;;;;;;4.75;1.00;;;8.30;99.90;;;;;;1852101;76;21067;-74
2022/02/06 11:20:03;;;;;;;2.37;0.98;;;8.20;99.90;;;;;;1853300;75;21077;-73
2022/02/06 11:22:30;;;;;;;1.87;0.75;;;8.30;99.90;;;;;;1853970;76;21041;-75
2022/02/06 11:25:01;;;;;;;4.58;1.00;;;8.30;99.90;;;;;;1853591;77;21516;-75
2022/02/06 11:27:28;;;;;;;;;;;8.30;99.90;;;;;;1856194;77;21167;-75
2022/02/06 11:29:56;;;;;;;2.92;0.85;;;8.30;99.90;;;;;;1853603;77;20118;-79
2022/02/06 11:32:27;;;;;;;2.72;0.82;;;8.30;99.90;;;;;;1853968;77;21151;-75
2022/02/06 11:34:56;;;;;;;2.50;1.05;;;8.30;99.90;;;;;;1853640;77;21470;-75
2022/02/06 11:46:31;;;;;;;2.98;0.90;;;8.40;99.90;;;;;;1854787;77;21122;-75
2022/02/06 11:49:11;;;;;;;8.05;1.00;;;8.40;99.90;;;;;;1857451;76;21151;-74
2022/02/06 11:51:40;;;;;;;3.00;0.85;;;8.50;99.90;;;;;;1856829;77;21037;-75
2022/02/06 11:54:33;;;;;;;9.38;0.90;;;8.50;99.90;;;;;;1831824;76;21092;-76
2022/02/06 11:57:29;;;;;;;2.98;0.90;;;8.50;99.90;;;;;;1856981;77;21115;-78
2022/02/06 12:00:06;;;;;;;2.33;0.75;;;8.50;99.90;;;;;;1856292;77;21109;-85
2022/02/06 12:02:37;;;;;;;2.75;1.10;;;8.50;99.90;;;;;;1856753;77;21123;-77
2022/02/06 12:05:26;;;;;;;2.10;0.90;;;8.50;99.90;;;;;;1856716;77;21037;-79
2022/02/06 12:08:10;;;;;;;3.15;0.80;;;8.40;99.90;;;;;;1856587;75;21426;-79
2022/02/06 12:10:40;;;;;;;8.43;1.12;;;8.50;99.90;;;;;;1856779;77;21127;-79
2022/02/06 12:13:22;;;;;;;3.42;0.88;;;8.50;99.90;;;;;;1856808;77;21063;-78
2022/02/06 12:15:50;;;;;;;2.40;0.95;;;8.40;99.90;;;;;;1856779;75;21497;-79
2022/02/06 12:18:31;;;;;;;3.72;0.80;;;8.50;99.90;;;;;;1856746;77;21127;-79
2022/02/06 12:21:12;;;;;;;4.12;0.72;;;8.50;99.90;;;;;;1856728;77;21069;-77
2022/02/06 12:23:55;;;;;;;4.60;0.70;;;8.50;99.90;;;;;;1856791;77;21048;-79
2022/02/06 12:26:31;;;;;;;2.27;0.90;;;8.50;99.90;;;;;;1856644;77;21193;-77
2022/02/06 12:29:00;;;;;;;5.85;1.07;;;8.50;99.90;;;;;;1856799;77;21073;-77
2022/02/06 12:31:32;;;;;;;5.15;0.90;;;8.40;99.90;;;;;;1856567;77;21101;-74
2022/02/06 12:39:23;;;;;;;2.30;0.80;;;8.50;99.90;;;;;;1856531;77;21046;-78
2022/02/06 12:41:52;;;;;;;2.67;0.82;;;8.50;99.90;;;;;;1856556;77;21094;-79
2022/02/06 12:44:19;;;;;;;1.85;0.78;;;8.50;99.90;;;;;;1856531;77;21058;-77
2022/02/06 12:46:48;;;;;;;2.58;1.27;;;8.50;99.90;;;;;;1856501;76;21026;-78
2022/02/06 12:49:17;;;;;;;2.92;1.00;;;8.50;99.90;;;;;;1855822;77;21033;-77
2022/02/06 12:51:44;;;;;;;8.95;0.98;;;8.50;99.90;;;;;;1856458;77;21065;-79
2022/02/06 12:54:14;;;;;;;4.37;0.80;;;8.50;99.90;;;;;;1856419;77;21212;-74
2022/02/06 12:56:43;;;;;;;2.35;1.00;;;8.60;99.90;;;;;;1856672;77;21043;-76
2022/02/06 12:59:11;;;;;;;2.17;0.68;;;8.70;99.90;;;;;;1856587;76;21026;-76
2022/02/06 13:01:44;;;;;;;7.58;0.80;;;8.70;99.90;;;;;;1856625;77;21178;-76
2022/02/06 13:04:13;;;;;;;1.75;0.57;;;8.70;99.90;;;;;;1856487;77;21127;-74
2022/02/06 13:06:42;;;;;;;1.75;0.60;;;8.70;99.90;;;;;;1856591;77;21076;-75
2022/02/06 13:09:15;;;;;;;3.77;1.17;;;8.70;99.90;;;;;;1856439;77;21135;-76
2022/02/06 13:11:53;;;;;;;2.25;0.60;;;8.70;99.90;;;;;;1855103;75;21441;-76
2022/02/06 13:17:05;;;;;;;2.45;0.78;;;8.70;99.90;;;;;;1856661;76;21096;-77
2022/02/06 13:22:28;;;;;;;1.95;0.50;;;8.80;99.90;;;;;;1833797;77;21053;-78
2022/02/06 13:30:14;;;;;;;1.85;0.80;;;8.70;99.90;;;;;;1856429;77;21540;-74
2022/02/06 13:33:18;;;;;;;5.17;0.78;;;8.60;99.90;;;;;;1853326;77;21193;-78
2022/02/06 13:37:57;;;;;;;2.15;0.88;;;8.50;99.90;;;;;;1856482;77;21118;-74
2022/02/06 13:40:20;;;;;;;2.95;0.98;;;8.60;99.90;;;;;;1854840;77;21124;-75
2022/02/06 13:42:58;;;;;;;2.37;0.93;;;8.60;99.90;;;;;;1856248;77;21434;-75
2022/02/06 13:45:27;;;;;;;0.50;0.50;;;8.60;99.90;;;;;;1854933;77;21026;-77
2022/02/06 13:47:56;;;;;;;1.32;0.75;;;8.50;99.90;;;;;;1835569;76;21571;-74
2022/02/06 13:50:25;;;;;;;0.72;0.70;;;8.50;99.90;;;;;;1805533;78;21092;-77
2022/02/06 13:53:14;;;;;;;0.85;0.60;;;8.50;99.90;;;;;;1794033;78;21074;-80
2022/02/06 13:55:53;;;;;;;2.27;0.65;;;8.50;99.90;;;;;;1803574;77;21477;-74
2022/02/06 13:58:26;;;;;;;1.10;0.60;;;8.50;99.90;;;;;;1812284;78;21066;-76
2022/02/06 14:01:04;;;;;;;1.62;0.50;;;8.50;99.90;;;;;;1797614;78;21143;-75
2022/02/06 14:03:44;;;;;;;1.67;0.50;;;8.40;99.90;;;;;;1778519;79;21285;-78
2022/02/06 14:06:14;;;;;;;1.47;0.30;;;8.40;99.90;;;;;;1865874;76;21073;-79
2022/02/06 14:09:08;;;;;;;0.50;0.50;;;8.40;99.90;;;;;;1862626;76;21164;-76
2022/02/06 14:11:31;;;;;;;0.98;0.37;;;8.30;99.90;;;;;;1867089;76;21143;-75
2022/02/06 14:14:21;;;;;;;1.72;0.53;;;8.30;99.90;;;;;;1872832;76;21466;-73
2022/02/06 14:16:49;;;;;;;0.75;0.33;;;8.20;99.90;;;;;;1862029;76;21575;-77
2022/02/06 14:19:42;;;;;;;0.45;0.45;;;8.10;99.90;;;;;;1875777;75;21058;-79
2022/02/06 14:22:10;;;;;;;1.80;0.60;;;8.00;99.90;;;;;;1868399;76;21163;-76
2022/02/06 14:24:51;;;;;;;0.78;0.50;;;7.90;99.90;;;;;;1837221;75;21092;-77
2022/02/06 14:27:38;;;;;;;0.20;0.20;;;7.90;99.90;;;;;;1794174;79;21302;-76
2022/02/06 14:30:08;;;;;;;0.80;0.50;;;7.80;99.90;;;;;;1814663;79;21132;-77
2022/02/06 14:32:36;;;;;;;2.75;0.70;;;7.80;99.90;;;;;;1832260;77;21500;-76
2022/02/06 14:35:12;;;;;;;0.35;0.20;;;7.70;99.90;;;;;;1834340;78;21033;-75
2022/02/06 14:37:45;;;;;;;1.25;0.40;;;7.70;99.90;;;;;;1829479;77;21137;-76
2022/02/06 14:40:20;;;;;;;2.12;0.65;;;7.70;99.90;;;;;;1807964;77;21106;-74
2022/02/06 14:42:52;;;;;;;0.60;0.42;;;7.60;99.90;;;;;;1791422;78;21543;-77
2022/02/06 14:45:20;;;;;;;1.40;0.60;;;7.50;99.90;;;;;;1792285;77;21058;-81
2022/02/06 14:47:47;;;;;;;0.70;0.40;;;7.50;99.90;;;;;;1770323;79;21081;-78
2022/02/06 14:50:17;;;;;;;0.82;0.68;;;7.50;99.90;;;;;;1875836;76;21205;-76
2022/02/06 14:52:45;;;;;;;6.83;0.50;;;7.50;99.90;;;;;;1863045;75;21143;-79
2022/02/06 14:55:13;;;;;;;0.45;0.40;;;7.40;99.90;;;;;;1863079;76;21077;-73
2022/02/06 14:57:40;;;;;;;0.90;0.30;;;7.40;99.90;;;;;;1856074;77;21089;-74
2022/02/06 15:00:10;;;;;;;1.07;0.40;;;7.40;99.90;;;;;;1872284;76;21468;-75
2022/02/06 15:02:39;;;;;;;0.90;0.33;;;7.30;99.90;;;;;;1859126;76;21776;-86
2022/02/06 15:05:08;;;;;;;;;;;7.20;99.90;;;;;;1858749;77;21137;-77
2022/02/06 15:07:36;;;;;;;0.30;0.30;;;7.20;99.90;;;;;;1832058;77;20134;-74
2022/02/06 15:10:08;;;;;;;0.50;0.30;;;7.20;99.90;;;;;;1879668;76;21245;-72
2022/02/06 15:12:36;;;;;;;1.15;0.50;;;7.10;99.90;;;;;;1871062;76;21077;-75
2022/02/06 15:15:06;;;;;;;0.30;0.30;;;7.10;99.90;;;;;;1869351;76;21081;-74
2022/02/06 15:17:33;;;;;;;3.17;0.60;;;7.00;99.90;;;;;;1856649;76;21081;-81
2022/02/06 15:20:01;;;;;;;3.62;1.57;;;7.00;99.90;;;;;;1869532;76;21575;-74
2022/02/06 15:22:28;;;;;;;3.77;1.20;;;6.90;99.90;;;;;;1860151;76;21085;-78
2022/02/06 15:24:57;;;;;;;0.85;0.53;;;6.80;99.90;;;;;;1879448;76;21154;-75